sensor_id;sensor_type;location;lat;lon;timestamp;pressure;altitude;pressure_sealevel;temperature;humidity
68994;BME280;56054;50.968;5.816;2023-02-28T00:01:14;102131.25;;;0.45;86.62
68994;BME280;56054;50.968;5.816;2023-02-28T00:04:21;102129.50;;;0.58;86.45
68994;BME280;56054;50.968;5.816;2023-02-28T00:07:49;102132.13;;;0.72;86.27
68994;BME280;56054;50.968;5.816;2023-02-28T00:11:04;102129.84;;;0.61;86.61
68994;BME280;56054;50.968;5.816;2023-02-28T00:14:12;102128.31;;;0.41;86.59
68994;BME280;56054;50.968;5.816;2023-02-28T00:17:28;102124.19;;;0.29;87.11
68994;BME280;56054;50.968;5.816;2023-02-28T00:20:37;102115.84;;;0.37;87.39
68994;BME280;56054;50.968;5.816;2023-02-28T00:24:09;102120.56;;;0.27;88.18
68994;BME280;56054;50.968;5.816;2023-02-28T00:27:29;102113.31;;;0.37;87.10
68994;BME280;56054;50.968;5.816;2023-02-28T00:31:03;102124.97;;;0.35;87.68
68994;BME280;56054;50.968;5.816;2023-02-28T00:34:19;102124.13;;;0.42;87.68
68994;BME280;56054;50.968;5.816;2023-02-28T00:37:32;102125.66;;;0.27;88.32
68994;BME280;56054;50.968;5.816;2023-02-28T00:41:06;102128.97;;;0.33;88.14
68994;BME280;56054;50.968;5.816;2023-02-28T00:44:51;102130.78;;;0.27;88.04
68994;BME280;56054;50.968;5.816;2023-02-28T00:48:08;102134.50;;;0.43;87.38
68994;BME280;56054;50.968;5.816;2023-02-28T00:51:27;102132.84;;;0.37;88.55
68994;BME280;56054;50.968;5.816;2023-02-28T00:54:34;102135.19;;;0.35;87.99
68994;BME280;56054;50.968;5.816;2023-02-28T00:57:46;102131.84;;;0.29;88.03
68994;BME280;56054;50.968;5.816;2023-02-28T01:01:22;102143.44;;;0.13;88.97
68994;BME280;56054;50.968;5.816;2023-02-28T01:04:57;102140.53;;;0.17;89.03
68994;BME280;56054;50.968;5.816;2023-02-28T01:08:04;102144.94;;;0.18;88.70
68994;BME280;56054;50.968;5.816;2023-02-28T01:11:15;102144.13;;;0.32;88.69
68994;BME280;56054;50.968;5.816;2023-02-28T01:14:22;102150.97;;;0.18;89.32
68994;BME280;56054;50.968;5.816;2023-02-28T01:17:38;102144.63;;;0.29;88.75
68994;BME280;56054;50.968;5.816;2023-02-28T01:36:15;102142.88;;;0.08;89.26
68994;BME280;56054;50.968;5.816;2023-02-28T01:39:47;102138.59;;;0.02;89.50
68994;BME280;56054;50.968;5.816;2023-02-28T01:54:37;102129.34;;;0.09;89.89
68994;BME280;56054;50.968;5.816;2023-02-28T01:57:55;102126.72;;;0.02;89.45
68994;BME280;56054;50.968;5.816;2023-02-28T02:01:03;102130.09;;;0.08;89.73
68994;BME280;56054;50.968;5.816;2023-02-28T02:04:11;102123.59;;;-0.03;89.97
68994;BME280;56054;50.968;5.816;2023-02-28T02:07:18;102119.59;;;-0.01;90.04
68994;BME280;56054;50.968;5.816;2023-02-28T02:10:45;102113.78;;;0.01;89.62
68994;BME280;56054;50.968;5.816;2023-02-28T02:17:57;102109.88;;;0.17;90.08
68994;BME280;56054;50.968;5.816;2023-02-28T02:39:58;102105.47;;;0.16;89.65
68994;BME280;56054;50.968;5.816;2023-02-28T02:43:19;102100.69;;;0.12;89.42
68994;BME280;56054;50.968;5.816;2023-02-28T02:47:04;102102.56;;;0.13;89.31
68994;BME280;56054;50.968;5.816;2023-02-28T02:50:23;102096.31;;;0.11;89.53
68994;BME280;56054;50.968;5.816;2023-02-28T02:53:53;102088.28;;;0.08;89.35
68994;BME280;56054;50.968;5.816;2023-02-28T02:57:13;102090.84;;;0.08;89.22
68994;BME280;56054;50.968;5.816;2023-02-28T03:00:30;102099.16;;;-0.01;88.63
68994;BME280;56054;50.968;5.816;2023-02-28T03:03:47;102096.22;;;-0.04;89.56
68994;BME280;56054;50.968;5.816;2023-02-28T03:06:55;102104.63;;;-0.05;90.15
68994;BME280;56054;50.968;5.816;2023-02-28T03:10:41;102102.13;;;-0.17;91.06
68994;BME280;56054;50.968;5.816;2023-02-28T03:18:02;102103.72;;;-0.45;92.41
68994;BME280;56054;50.968;5.816;2023-02-28T03:21:22;102100.25;;;-0.46;92.32
68994;BME280;56054;50.968;5.816;2023-02-28T03:25:29;102106.63;;;-0.22;91.89
68994;BME280;56054;50.968;5.816;2023-02-28T03:28:43;102093.88;;;-0.22;91.38
68994;BME280;56054;50.968;5.816;2023-02-28T03:32:02;102106.59;;;-0.49;92.69
68994;BME280;56054;50.968;5.816;2023-02-28T03:35:26;102109.88;;;-0.50;93.36
68994;BME280;56054;50.968;5.816;2023-02-28T03:39:08;102112.56;;;-0.56;93.96
68994;BME280;56054;50.968;5.816;2023-02-28T03:42:29;102115.03;;;-0.63;94.05
68994;BME280;56054;50.968;5.816;2023-02-28T03:45:39;102113.09;;;-0.71;94.53
68994;BME280;56054;50.968;5.816;2023-02-28T03:49:06;102112.66;;;-0.61;94.63
68994;BME280;56054;50.968;5.816;2023-02-28T03:52:28;102112.94;;;-0.53;94.93
68994;BME280;56054;50.968;5.816;2023-02-28T03:56:29;102111.44;;;-0.38;95.00
68994;BME280;56054;50.968;5.816;2023-02-28T03:59:39;102113.91;;;-0.25;93.90
68994;BME280;56054;50.968;5.816;2023-02-28T04:02:48;102105.88;;;-0.48;94.87
68994;BME280;56054;50.968;5.816;2023-02-28T04:05:55;102109.03;;;-0.44;94.70
68994;BME280;56054;50.968;5.816;2023-02-28T04:09:09;102105.00;;;-0.41;94.66
68994;BME280;56054;50.968;5.816;2023-02-28T04:12:17;102104.50;;;-0.39;94.09
68994;BME280;56054;50.968;5.816;2023-02-28T04:15:27;102104.16;;;-0.35;94.12
68994;BME280;56054;50.968;5.816;2023-02-28T04:18:34;102110.00;;;-0.36;93.85
68994;BME280;56054;50.968;5.816;2023-02-28T04:21:44;102108.03;;;-0.31;93.29
68994;BME280;56054;50.968;5.816;2023-02-28T04:24:52;102114.28;;;-0.29;93.46
68994;BME280;56054;50.968;5.816;2023-02-28T04:28:08;102111.38;;;-0.25;93.99
68994;BME280;56054;50.968;5.816;2023-02-28T04:31:17;102111.19;;;-0.27;93.20
68994;BME280;56054;50.968;5.816;2023-02-28T04:34:29;102105.28;;;-0.53;93.38
68994;BME280;56054;50.968;5.816;2023-02-28T04:37:37;102113.53;;;-0.28;93.21
68994;BME280;56054;50.968;5.816;2023-02-28T04:40:44;102113.09;;;-0.38;93.66
68994;BME280;56054;50.968;5.816;2023-02-28T04:44:16;102115.28;;;-0.34;92.99
68994;BME280;56054;50.968;5.816;2023-02-28T04:47:33;102115.63;;;-0.38;93.27
68994;BME280;56054;50.968;5.816;2023-02-28T04:50:40;102111.69;;;-0.69;94.01
68994;BME280;56054;50.968;5.816;2023-02-28T04:54:13;102118.19;;;-0.58;94.24
68994;BME280;56054;50.968;5.816;2023-02-28T04:57:59;102111.88;;;-0.68;95.44
68994;BME280;56054;50.968;5.816;2023-02-28T05:04:40;102132.00;;;-0.76;94.92
68994;BME280;56054;50.968;5.816;2023-02-28T05:07:47;102119.63;;;-0.73;94.73
68994;BME280;56054;50.968;5.816;2023-02-28T05:11:03;102123.59;;;-0.62;93.73
68994;BME280;56054;50.968;5.816;2023-02-28T05:14:14;102133.81;;;-0.62;94.06
68994;BME280;56054;50.968;5.816;2023-02-28T05:17:21;102133.91;;;-0.55;94.07
68994;BME280;56054;50.968;5.816;2023-02-28T05:20:37;102129.22;;;-0.98;96.07
68994;BME280;56054;50.968;5.816;2023-02-28T05:23:44;102122.06;;;-0.88;96.43
68994;BME280;56054;50.968;5.816;2023-02-28T05:26:58;102132.22;;;-0.75;95.55
68994;BME280;56054;50.968;5.816;2023-02-28T05:30:07;102126.59;;;-0.72;95.80
68994;BME280;56054;50.968;5.816;2023-02-28T05:33:14;102134.97;;;-0.73;95.84
68994;BME280;56054;50.968;5.816;2023-02-28T05:36:21;102128.41;;;-0.71;95.18
68994;BME280;56054;50.968;5.816;2023-02-28T05:39:28;102131.72;;;-0.72;95.01
68994;BME280;56054;50.968;5.816;2023-02-28T05:42:43;102130.19;;;-0.77;95.06
68994;BME280;56054;50.968;5.816;2023-02-28T05:45:50;102132.41;;;-0.73;95.61
68994;BME280;56054;50.968;5.816;2023-02-28T05:49:22;102128.88;;;-0.81;94.65
68994;BME280;56054;50.968;5.816;2023-02-28T05:52:30;102130.91;;;-0.78;94.28
68994;BME280;56054;50.968;5.816;2023-02-28T05:55:37;102128.69;;;-0.82;94.93
68994;BME280;56054;50.968;5.816;2023-02-28T05:58:52;102126.81;;;-0.83;94.14
68994;BME280;56054;50.968;5.816;2023-02-28T06:02:02;102131.03;;;-0.84;94.87
68994;BME280;56054;50.968;5.816;2023-02-28T06:05:17;102140.03;;;-0.93;94.38
68994;BME280;56054;50.968;5.816;2023-02-28T06:08:24;102127.59;;;-0.97;94.46
68994;BME280;56054;50.968;5.816;2023-02-28T06:11:31;102126.03;;;-0.90;94.76
68994;BME280;56054;50.968;5.816;2023-02-28T06:14:39;102140.84;;;-0.87;94.05
68994;BME280;56054;50.968;5.816;2023-02-28T06:17:47;102143.81;;;-0.97;93.73
68994;BME280;56054;50.968;5.816;2023-02-28T06:20:54;102146.00;;;-1.25;94.84
68994;BME280;56054;50.968;5.816;2023-02-28T06:24:14;102146.03;;;-0.93;95.34
68994;BME280;56054;50.968;5.816;2023-02-28T06:27:22;102149.31;;;-0.94;94.53
68994;BME280;56054;50.968;5.816;2023-02-28T06:30:32;102148.53;;;-1.00;94.42
68994;BME280;56054;50.968;5.816;2023-02-28T06:34:13;102147.59;;;-1.00;93.83
68994;BME280;56054;50.968;5.816;2023-02-28T06:37:46;102146.81;;;-1.32;95.25
68994;BME280;56054;50.968;5.816;2023-02-28T06:41:12;102152.84;;;-1.44;95.13
68994;BME280;56054;50.968;5.816;2023-02-28T06:44:43;102154.88;;;-1.16;94.26
68994;BME280;56054;50.968;5.816;2023-02-28T06:47:50;102150.66;;;-1.03;94.59
68994;BME280;56054;50.968;5.816;2023-02-28T06:51:22;102163.25;;;-1.30;94.12
68994;BME280;56054;50.968;5.816;2023-02-28T06:54:30;102164.34;;;-1.02;93.76
68994;BME280;56054;50.968;5.816;2023-02-28T06:57:37;102163.44;;;-1.28;93.93
68994;BME280;56054;50.968;5.816;2023-02-28T07:01:10;102165.00;;;-1.36;93.75
68994;BME280;56054;50.968;5.816;2023-02-28T07:04:47;102186.06;;;-1.24;93.25
68994;BME280;56054;50.968;5.816;2023-02-28T07:08:03;102184.25;;;-1.13;93.32
68994;BME280;56054;50.968;5.816;2023-02-28T07:11:10;102183.97;;;-1.21;92.87
68994;BME280;56054;50.968;5.816;2023-02-28T07:14:17;102190.47;;;-1.11;92.50
68994;BME280;56054;50.968;5.816;2023-02-28T07:17:33;102182.09;;;-1.22;92.69
68994;BME280;56054;50.968;5.816;2023-02-28T07:20:40;102191.47;;;-1.03;92.41
68994;BME280;56054;50.968;5.816;2023-02-28T07:23:52;102190.53;;;-0.91;92.94
68994;BME280;56054;50.968;5.816;2023-02-28T07:27:02;102197.50;;;-0.90;91.69
68994;BME280;56054;50.968;5.816;2023-02-28T07:30:18;102192.41;;;-0.90;92.02
68994;BME280;56054;50.968;5.816;2023-02-28T07:33:34;102194.94;;;-0.90;91.64
68994;BME280;56054;50.968;5.816;2023-02-28T07:36:41;102196.06;;;-0.88;91.34
68994;BME280;56054;50.968;5.816;2023-02-28T07:39:55;102200.63;;;-0.72;90.51
68994;BME280;56054;50.968;5.816;2023-02-28T07:43:27;102208.69;;;-0.69;90.76
68994;BME280;56054;50.968;5.816;2023-02-28T07:47:00;102196.38;;;-0.59;89.87
68994;BME280;56054;50.968;5.816;2023-02-28T07:50:10;102192.22;;;-0.58;89.72
68994;BME280;56054;50.968;5.816;2023-02-28T07:53:18;102206.00;;;-0.51;88.88
68994;BME280;56054;50.968;5.816;2023-02-28T07:56:25;102194.34;;;-0.49;89.31
68994;BME280;56054;50.968;5.816;2023-02-28T07:59:33;102201.66;;;-0.45;88.57
68994;BME280;56054;50.968;5.816;2023-02-28T08:02:40;102201.50;;;-0.06;88.33
68994;BME280;56054;50.968;5.816;2023-02-28T08:05:53;102195.34;;;-0.21;86.83
68994;BME280;56054;50.968;5.816;2023-02-28T08:09:00;102197.16;;;-0.20;86.22
68994;BME280;56054;50.968;5.816;2023-02-28T08:12:17;102208.59;;;-0.11;85.48
68994;BME280;56054;50.968;5.816;2023-02-28T08:15:24;102203.94;;;-0.01;85.08
68994;BME280;56054;50.968;5.816;2023-02-28T08:18:32;102204.72;;;0.06;85.32
68994;BME280;56054;50.968;5.816;2023-02-28T08:21:39;102199.47;;;0.11;83.66
68994;BME280;56054;50.968;5.816;2023-02-28T08:24:46;102209.03;;;0.39;82.68
68994;BME280;56054;50.968;5.816;2023-02-28T08:27:53;102205.16;;;0.36;82.12
68994;BME280;56054;50.968;5.816;2023-02-28T08:31:08;102208.56;;;0.49;81.61
68994;BME280;56054;50.968;5.816;2023-02-28T08:34:16;102209.13;;;0.54;80.02
68994;BME280;56054;50.968;5.816;2023-02-28T08:37:49;102206.22;;;0.58;75.88
68994;BME280;56054;50.968;5.816;2023-02-28T08:41:01;102211.06;;;0.69;74.76
68994;BME280;56054;50.968;5.816;2023-02-28T08:44:33;102213.66;;;0.76;73.73
68994;BME280;56054;50.968;5.816;2023-02-28T08:47:43;102203.31;;;0.89;74.57
68994;BME280;56054;50.968;5.816;2023-02-28T08:51:04;102203.34;;;0.96;72.00
68994;BME280;56054;50.968;5.816;2023-02-28T08:54:43;102205.66;;;1.15;72.79
68994;BME280;56054;50.968;5.816;2023-02-28T08:57:50;102197.78;;;1.13;70.70
68994;BME280;56054;50.968;5.816;2023-02-28T09:00:58;102191.78;;;1.20;70.52
68994;BME280;56054;50.968;5.816;2023-02-28T09:04:05;102201.66;;;1.24;68.03
68994;BME280;56054;50.968;5.816;2023-02-28T09:07:12;102204.63;;;1.34;68.16
68994;BME280;56054;50.968;5.816;2023-02-28T09:10:19;102191.28;;;1.44;67.00
68994;BME280;56054;50.968;5.816;2023-02-28T09:13:26;102199.72;;;1.43;65.15
68994;BME280;56054;50.968;5.816;2023-02-28T09:16:39;102189.72;;;1.66;65.18
68994;BME280;56054;50.968;5.816;2023-02-28T09:19:48;102198.66;;;1.62;62.63
68994;BME280;56054;50.968;5.816;2023-02-28T09:22:58;102200.50;;;1.70;62.47
68994;BME280;56054;50.968;5.816;2023-02-28T09:26:30;102191.56;;;1.81;62.40
68994;BME280;56054;50.968;5.816;2023-02-28T09:29:38;102190.28;;;1.92;61.47
68994;BME280;56054;50.968;5.816;2023-02-28T09:32:49;102182.41;;;2.05;61.03
68994;BME280;56054;50.968;5.816;2023-02-28T09:48:53;102187.41;;;2.25;57.09
68994;BME280;56054;50.968;5.816;2023-02-28T09:52:08;102176.03;;;2.37;56.91
68994;BME280;56054;50.968;5.816;2023-02-28T09:58:49;102178.38;;;2.57;54.10
68994;BME280;56054;50.968;5.816;2023-02-28T10:02:19;102173.78;;;2.62;53.28
68994;BME280;56054;50.968;5.816;2023-02-28T10:06:07;102172.66;;;2.74;53.12
68994;BME280;56054;50.968;5.816;2023-02-28T10:09:29;102177.78;;;2.81;52.87
68994;BME280;56054;50.968;5.816;2023-02-28T10:12:58;102178.81;;;2.97;52.44
68994;BME280;56054;50.968;5.816;2023-02-28T10:16:25;102185.47;;;2.88;50.62
68994;BME280;56054;50.968;5.816;2023-02-28T10:23:59;102176.22;;;3.05;49.18
68994;BME280;56054;50.968;5.816;2023-02-28T10:30:24;102177.47;;;3.15;49.75
68994;BME280;56054;50.968;5.816;2023-02-28T10:33:33;102179.81;;;3.21;48.54
68994;BME280;56054;50.968;5.816;2023-02-28T10:36:41;102175.84;;;3.09;47.30
68994;BME280;56054;50.968;5.816;2023-02-28T10:40:31;102177.19;;;2.98;47.21
68994;BME280;56054;50.968;5.816;2023-02-28T10:43:40;102177.09;;;3.19;46.65
68994;BME280;56054;50.968;5.816;2023-02-28T10:46:58;102170.97;;;3.33;47.29
68994;BME280;56054;50.968;5.816;2023-02-28T10:50:34;102166.66;;;3.48;44.99
68994;BME280;56054;50.968;5.816;2023-02-28T10:57:26;102162.16;;;3.69;45.25
68994;BME280;56054;50.968;5.816;2023-02-28T11:00:38;102159.72;;;3.70;45.44
68994;BME280;56054;50.968;5.816;2023-02-28T11:03:45;102149.84;;;3.89;45.25
68994;BME280;56054;50.968;5.816;2023-02-28T11:07:16;102152.88;;;3.78;45.09
68994;BME280;56054;50.968;5.816;2023-02-28T11:10:54;102131.81;;;3.96;45.29
68994;BME280;56054;50.968;5.816;2023-02-28T11:14:35;102140.34;;;3.88;45.17
68994;BME280;56054;50.968;5.816;2023-02-28T11:21:37;102135.97;;;3.57;44.63
68994;BME280;56054;50.968;5.816;2023-02-28T11:24:57;102140.53;;;3.82;45.60
68994;BME280;56054;50.968;5.816;2023-02-28T11:28:31;102139.09;;;3.77;45.54
68994;BME280;56054;50.968;5.816;2023-02-28T11:31:39;102144.84;;;3.98;45.56
68994;BME280;56054;50.968;5.816;2023-02-28T11:38:13;102140.38;;;3.81;45.02
68994;BME280;56054;50.968;5.816;2023-02-28T11:41:50;102136.19;;;3.97;45.12
68994;BME280;56054;50.968;5.816;2023-02-28T11:49:10;102139.84;;;3.99;44.26
68994;BME280;56054;50.968;5.816;2023-02-28T11:52:54;102133.81;;;3.76;44.70
68994;BME280;56054;50.968;5.816;2023-02-28T11:56:08;102124.41;;;3.99;44.89
68994;BME280;56054;50.968;5.816;2023-02-28T12:09:52;102116.94;;;3.94;45.18
68994;BME280;56054;50.968;5.816;2023-02-28T12:13:48;102129.97;;;4.18;45.72
68994;BME280;56054;50.968;5.816;2023-02-28T12:20:50;102120.34;;;3.85;44.79
68994;BME280;56054;50.968;5.816;2023-02-28T12:27:52;102120.38;;;4.24;45.20
68994;BME280;56054;50.968;5.816;2023-02-28T12:31:29;102118.13;;;4.27;45.05
68994;BME280;56054;50.968;5.816;2023-02-28T12:44:49;102099.47;;;4.37;44.88
68994;BME280;56054;50.968;5.816;2023-02-28T12:48:05;102101.66;;;4.18;44.29
68994;BME280;56054;50.968;5.816;2023-02-28T12:51:18;102096.69;;;4.36;45.09
68994;BME280;56054;50.968;5.816;2023-02-28T12:54:41;102097.84;;;4.31;44.93
68994;BME280;56054;50.968;5.816;2023-02-28T13:02:19;102089.31;;;4.39;45.56
68994;BME280;56054;50.968;5.816;2023-02-28T13:08:29;102076.19;;;4.13;45.77
68994;BME280;56054;50.968;5.816;2023-02-28T13:11:49;102083.19;;;4.29;45.68
68994;BME280;56054;50.968;5.816;2023-02-28T13:15:33;102071.56;;;4.49;45.63
68994;BME280;56054;50.968;5.816;2023-02-28T13:18:52;102074.03;;;4.24;45.72
68994;BME280;56054;50.968;5.816;2023-02-28T13:22:44;102060.84;;;4.37;45.91
68994;BME280;56054;50.968;5.816;2023-02-28T13:25:53;102062.09;;;4.57;46.16
68994;BME280;56054;50.968;5.816;2023-02-28T13:32:28;102060.84;;;4.53;45.99
68994;BME280;56054;50.968;5.816;2023-02-28T13:44:20;102052.78;;;4.82;45.82
68994;BME280;56054;50.968;5.816;2023-02-28T13:47:29;102057.16;;;4.83;46.27
68994;BME280;56054;50.968;5.816;2023-02-28T13:50:52;102049.69;;;4.93;46.75
68994;BME280;56054;50.968;5.816;2023-02-28T13:54:17;102049.78;;;4.70;46.77
68994;BME280;56054;50.968;5.816;2023-02-28T14:01:57;102038.91;;;4.72;46.45
68994;BME280;56054;50.968;5.816;2023-02-28T14:06:07;102046.13;;;4.68;46.19
68994;BME280;56054;50.968;5.816;2023-02-28T14:09:35;102045.38;;;4.53;46.00
68994;BME280;56054;50.968;5.816;2023-02-28T14:16:57;102032.78;;;4.63;45.59
68994;BME280;56054;50.968;5.816;2023-02-28T14:20:12;102035.09;;;4.53;45.51
68994;BME280;56054;50.968;5.816;2023-02-28T14:33:47;102022.59;;;4.56;46.63
68994;BME280;56054;50.968;5.816;2023-02-28T14:37:02;102022.13;;;4.60;47.00
68994;BME280;56054;50.968;5.816;2023-02-28T14:44:18;102031.16;;;4.88;46.90
68994;BME280;56054;50.968;5.816;2023-02-28T14:47:35;102022.63;;;4.81;47.55
68994;BME280;56054;50.968;5.816;2023-02-28T14:50:54;102025.78;;;4.62;47.30
68994;BME280;56054;50.968;5.816;2023-02-28T14:54:03;102016.91;;;4.67;47.45
68994;BME280;56054;50.968;5.816;2023-02-28T14:57:34;102020.66;;;4.62;47.53
68994;BME280;56054;50.968;5.816;2023-02-28T15:00:55;102020.47;;;4.77;47.48
68994;BME280;56054;50.968;5.816;2023-02-28T15:04:05;102022.50;;;4.63;47.43
68994;BME280;56054;50.968;5.816;2023-02-28T15:07:44;102020.00;;;4.56;47.23
68994;BME280;56054;50.968;5.816;2023-02-28T15:11:13;102010.84;;;4.67;47.73
68994;BME280;56054;50.968;5.816;2023-02-28T15:14:21;102015.09;;;4.66;47.78
68994;BME280;56054;50.968;5.816;2023-02-28T15:17:29;102011.84;;;4.60;48.09
68994;BME280;56054;50.968;5.816;2023-02-28T15:20:38;101997.44;;;4.54;48.29
68994;BME280;56054;50.968;5.816;2023-02-28T15:23:51;102002.47;;;4.45;48.51
68994;BME280;56054;50.968;5.816;2023-02-28T15:27:14;102014.44;;;4.44;48.65
68994;BME280;56054;50.968;5.816;2023-02-28T15:30:26;102008.28;;;4.51;49.01
68994;BME280;56054;50.968;5.816;2023-02-28T15:33:34;102015.63;;;4.39;49.40
68994;BME280;56054;50.968;5.816;2023-02-28T15:36:49;102006.22;;;4.40;49.21
68994;BME280;56054;50.968;5.816;2023-02-28T15:43:29;102013.75;;;4.38;49.68
68994;BME280;56054;50.968;5.816;2023-02-28T15:46:37;102010.53;;;4.48;50.09
68994;BME280;56054;50.968;5.816;2023-02-28T15:49:49;102003.88;;;4.50;49.93
68994;BME280;56054;50.968;5.816;2023-02-28T15:52:59;102010.53;;;4.48;49.27
68994;BME280;56054;50.968;5.816;2023-02-28T15:59:36;102012.97;;;4.46;49.89
68994;BME280;56054;50.968;5.816;2023-02-28T16:02:44;102006.72;;;4.44;50.08
68994;BME280;56054;50.968;5.816;2023-02-28T16:09:23;102002.97;;;4.49;50.09
68994;BME280;56054;50.968;5.816;2023-02-28T16:12:32;102012.00;;;4.46;50.18
68994;BME280;56054;50.968;5.816;2023-02-28T16:15:42;102024.16;;;4.47;50.43
68994;BME280;56054;50.968;5.816;2023-02-28T16:18:53;102025.66;;;4.45;50.06
68994;BME280;56054;50.968;5.816;2023-02-28T16:22:26;102015.75;;;4.41;50.87
68994;BME280;56054;50.968;5.816;2023-02-28T16:29:24;102024.16;;;4.31;50.58
68994;BME280;56054;50.968;5.816;2023-02-28T16:33:04;102024.72;;;4.28;51.39
68994;BME280;56054;50.968;5.816;2023-02-28T16:36:38;102020.00;;;4.24;51.45
68994;BME280;56054;50.968;5.816;2023-02-28T16:40:39;102021.81;;;4.25;50.71
68994;BME280;56054;50.968;5.816;2023-02-28T16:55:28;102041.91;;;4.05;52.68
68994;BME280;56054;50.968;5.816;2023-02-28T17:09:54;102033.38;;;3.90;54.23
68994;BME280;56054;50.968;5.816;2023-02-28T17:29:26;102060.94;;;3.68;55.33
68994;BME280;56054;50.968;5.816;2023-02-28T17:32:49;102065.41;;;3.62;55.81
68994;BME280;56054;50.968;5.816;2023-02-28T17:35:59;102068.00;;;3.62;56.39
68994;BME280;56054;50.968;5.816;2023-02-28T17:39:20;102073.13;;;3.62;56.24
68994;BME280;56054;50.968;5.816;2023-02-28T17:42:28;102083.13;;;3.52;56.41
68994;BME280;56054;50.968;5.816;2023-02-28T17:45:48;102093.34;;;3.59;57.16
68994;BME280;56054;50.968;5.816;2023-02-28T17:48:55;102091.97;;;3.47;57.90
68994;BME280;56054;50.968;5.816;2023-02-28T17:52:08;102093.25;;;3.43;57.47
68994;BME280;56054;50.968;5.816;2023-02-28T17:55:24;102092.16;;;3.41;58.03
68994;BME280;56054;50.968;5.816;2023-02-28T17:58:32;102098.44;;;3.36;58.54
68994;BME280;56054;50.968;5.816;2023-02-28T18:01:39;102100.50;;;3.31;58.34
68994;BME280;56054;50.968;5.816;2023-02-28T18:04:48;102092.81;;;3.24;59.17
68994;BME280;56054;50.968;5.816;2023-02-28T18:07:59;102106.44;;;3.23;59.73
68994;BME280;56054;50.968;5.816;2023-02-28T18:11:28;102096.94;;;3.15;59.92
68994;BME280;56054;50.968;5.816;2023-02-28T18:14:44;102103.38;;;3.11;60.08
68994;BME280;56054;50.968;5.816;2023-02-28T18:17:53;102094.41;;;3.08;60.42
68994;BME280;56054;50.968;5.816;2023-02-28T18:21:14;102102.16;;;3.00;61.67
68994;BME280;56054;50.968;5.816;2023-02-28T18:24:22;102092.25;;;2.96;61.59
68994;BME280;56054;50.968;5.816;2023-02-28T18:27:29;102100.31;;;2.92;62.14
68994;BME280;56054;50.968;5.816;2023-02-28T18:30:42;102109.88;;;2.93;62.38
68994;BME280;56054;50.968;5.816;2023-02-28T18:33:59;102104.56;;;2.92;62.99
68994;BME280;56054;50.968;5.816;2023-02-28T18:37:08;102102.38;;;2.88;63.26
68994;BME280;56054;50.968;5.816;2023-02-28T18:40:24;102095.22;;;2.85;63.49
68994;BME280;56054;50.968;5.816;2023-02-28T18:43:50;102105.00;;;2.73;63.59
68994;BME280;56054;50.968;5.816;2023-02-28T18:46:58;102095.66;;;2.74;63.65
68994;BME280;56054;50.968;5.816;2023-02-28T18:50:05;102097.13;;;2.72;64.77
68994;BME280;56054;50.968;5.816;2023-02-28T18:53:54;102101.19;;;2.63;64.16
68994;BME280;56054;50.968;5.816;2023-02-28T18:57:18;102106.72;;;2.59;64.76
68994;BME280;56054;50.968;5.816;2023-02-28T19:00:28;102101.59;;;2.59;64.81
68994;BME280;56054;50.968;5.816;2023-02-28T19:03:35;102099.72;;;2.57;65.42
68994;BME280;56054;50.968;5.816;2023-02-28T19:06:42;102103.22;;;2.58;65.77
68994;BME280;56054;50.968;5.816;2023-02-28T19:09:49;102103.78;;;2.48;65.68
68994;BME280;56054;50.968;5.816;2023-02-28T19:13:02;102111.47;;;2.48;65.69
68994;BME280;56054;50.968;5.816;2023-02-28T19:16:35;102116.25;;;2.45;65.80
68994;BME280;56054;50.968;5.816;2023-02-28T19:20:13;102107.88;;;2.39;66.43
68994;BME280;56054;50.968;5.816;2023-02-28T19:23:20;102103.22;;;2.51;66.37
68994;BME280;56054;50.968;5.816;2023-02-28T19:26:39;102108.56;;;2.38;66.23
68994;BME280;56054;50.968;5.816;2023-02-28T19:29:47;102103.81;;;2.41;66.83
68994;BME280;56054;50.968;5.816;2023-02-28T19:33:03;102107.31;;;2.34;66.23
68994;BME280;56054;50.968;5.816;2023-02-28T19:36:11;102105.31;;;2.32;67.29
68994;BME280;56054;50.968;5.816;2023-02-28T19:39:23;102111.38;;;2.18;67.23
68994;BME280;56054;50.968;5.816;2023-02-28T19:42:30;102117.03;;;2.23;67.16
68994;BME280;56054;50.968;5.816;2023-02-28T19:45:37;102122.88;;;2.22;67.78
68994;BME280;56054;50.968;5.816;2023-02-28T19:49:14;102126.19;;;2.28;68.36
68994;BME280;56054;50.968;5.816;2023-02-28T19:52:23;102120.50;;;2.23;68.05
68994;BME280;56054;50.968;5.816;2023-02-28T19:55:30;102136.81;;;2.17;68.56
68994;BME280;56054;50.968;5.816;2023-02-28T19:58:38;102128.97;;;2.15;68.04
68994;BME280;56054;50.968;5.816;2023-02-28T20:02:03;102131.88;;;2.11;68.38
68994;BME280;56054;50.968;5.816;2023-02-28T20:05:10;102133.53;;;2.03;68.65
68994;BME280;56054;50.968;5.816;2023-02-28T20:08:22;102131.69;;;2.09;68.64
68994;BME280;56054;50.968;5.816;2023-02-28T20:11:48;102131.69;;;2.02;69.27
68994;BME280;56054;50.968;5.816;2023-02-28T20:15:13;102124.38;;;2.05;69.05
68994;BME280;56054;50.968;5.816;2023-02-28T20:18:21;102125.66;;;2.02;69.12
68994;BME280;56054;50.968;5.816;2023-02-28T20:21:28;102127.88;;;1.99;69.03
68994;BME280;56054;50.968;5.816;2023-02-28T20:24:36;102137.00;;;1.97;69.55
68994;BME280;56054;50.968;5.816;2023-02-28T20:27:43;102134.25;;;2.09;69.81
68994;BME280;56054;50.968;5.816;2023-02-28T20:31:00;102118.72;;;2.01;70.04
68994;BME280;56054;50.968;5.816;2023-02-28T20:34:07;102135.00;;;2.23;70.67
68994;BME280;56054;50.968;5.816;2023-02-28T20:37:33;102123.28;;;2.03;72.10
68994;BME280;56054;50.968;5.816;2023-02-28T20:40:44;102135.56;;;2.20;71.78
68994;BME280;56054;50.968;5.816;2023-02-28T20:44:11;102134.66;;;1.91;70.68
68994;BME280;56054;50.968;5.816;2023-02-28T20:47:28;102130.78;;;1.87;71.73
68994;BME280;56054;50.968;5.816;2023-02-28T20:51:07;102122.19;;;1.87;71.68
68994;BME280;56054;50.968;5.816;2023-02-28T20:54:14;102120.38;;;2.00;73.01
68994;BME280;56054;50.968;5.816;2023-02-28T20:57:23;102121.44;;;2.09;72.53
68994;BME280;56054;50.968;5.816;2023-02-28T21:00:30;102118.31;;;2.05;73.42